createdAt,value
2023-05-19T00:00:15.337Z,1.40
2023-05-19T00:03:22.606Z,1.30
2023-05-19T00:06:27.930Z,1.23
2023-05-19T00:09:32.044Z,1.90
2023-05-19T00:12:35.757Z,1.00
2023-05-19T00:15:39.097Z,1.20
2023-05-19T00:18:42.631Z,1.20
2023-05-19T00:21:45.692Z,1.20
2023-05-19T00:24:49.704Z,1.50
2023-05-19T00:27:52.697Z,1.13
2023-05-19T00:30:57.139Z,1.20
2023-05-19T00:34:00.534Z,1.30
2023-05-19T00:37:05.239Z,1.00
2023-05-19T00:40:09.413Z,1.17
2023-05-19T00:43:13.580Z,1.10
2023-05-19T00:46:17.247Z,1.55
2023-05-19T00:49:21.755Z,1.50
2023-05-19T00:52:26.715Z,1.67
2023-05-19T00:55:32.740Z,1.00
2023-05-19T00:58:36.914Z,1.80
2023-05-19T01:01:41.174Z,1.88
2023-05-19T01:04:45.961Z,1.35
2023-05-19T01:07:54.588Z,1.90
2023-05-19T01:10:58.186Z,1.43
2023-05-19T01:14:02.328Z,1.20
2023-05-19T01:17:15.620Z,1.30
2023-05-19T01:20:33.201Z,1.15
2023-05-19T01:23:57.638Z,1.20
2023-05-19T01:27:39.547Z,1.50
2023-05-19T01:30:45.577Z,1.20
2023-05-19T01:33:50.897Z,1.40
2023-05-19T01:36:56.553Z,2.10
2023-05-19T01:39:59.824Z,2.40
2023-05-19T01:43:03.829Z,1.53
2023-05-19T01:46:08.513Z,1.80
2023-05-19T01:49:12.335Z,2.22
2023-05-19T01:52:16.558Z,1.23
2023-05-19T01:55:21.767Z,1.17
2023-05-19T01:58:48.023Z,1.20
2023-05-19T02:01:57.997Z,1.40
2023-05-19T02:05:15.301Z,1.20
2023-05-19T02:08:31.411Z,1.05
2023-05-19T02:11:38.863Z,1.53
2023-05-19T02:14:59.197Z,1.40
2023-05-19T02:18:05.452Z,1.40
2023-05-19T02:21:13.740Z,1.60
2023-05-19T02:24:17.647Z,1.20
2023-05-19T02:27:20.625Z,1.20
2023-05-19T02:30:23.748Z,1.30
2023-05-19T02:33:28.149Z,1.50
2023-05-19T02:36:35.828Z,1.20
2023-05-19T02:39:38.802Z,1.27
2023-05-19T02:42:42.039Z,1.37
2023-05-19T02:45:45.822Z,1.40
2023-05-19T02:48:49.020Z,1.58
2023-05-19T02:51:52.752Z,1.45
2023-05-19T02:54:56.307Z,1.50
2023-05-19T02:57:59.546Z,1.73
2023-05-19T03:01:03.171Z,1.33
2023-05-19T03:04:06.522Z,1.15
2023-05-19T03:07:10.886Z,1.25
2023-05-19T03:10:15.156Z,2.13
2023-05-19T03:13:18.813Z,1.10
2023-05-19T03:16:22.729Z,1.40
2023-05-19T03:19:27.560Z,1.30
2023-05-19T03:22:34.186Z,1.58
2023-05-19T03:25:38.272Z,1.85
2023-05-19T03:28:41.301Z,1.40
2023-05-19T03:31:44.424Z,1.27
2023-05-19T03:34:49.305Z,1.40
2023-05-19T03:37:52.425Z,1.80
2023-05-19T03:40:58.086Z,1.40
2023-05-19T03:44:02.446Z,1.67
2023-05-19T03:47:06.137Z,1.80
2023-05-19T03:50:24.472Z,1.55
2023-05-19T03:53:31.541Z,1.65
2023-05-19T03:56:35.327Z,1.30
2023-05-19T03:59:38.440Z,3.23
2023-05-19T04:02:42.136Z,1.60
2023-05-19T04:05:46.232Z,1.50
2023-05-19T04:08:49.538Z,1.52
2023-05-19T04:11:52.757Z,1.60
2023-05-19T04:14:56.147Z,1.83
2023-05-19T04:18:00.937Z,1.90
2023-05-19T04:21:04.457Z,1.40
2023-05-19T04:24:07.738Z,1.50
2023-05-19T04:27:13.189Z,1.42
2023-05-19T04:30:22.840Z,1.90
2023-05-19T04:33:26.621Z,1.60
2023-05-19T04:36:29.584Z,1.52
2023-05-19T04:39:33.104Z,2.03
2023-05-19T04:42:36.730Z,1.38
2023-05-19T04:45:43.426Z,1.90
2023-05-19T04:48:48.228Z,1.80
2023-05-19T04:51:55.577Z,2.53
2023-05-19T04:55:04.640Z,1.30
2023-05-19T04:58:08.667Z,1.42
2023-05-19T05:01:14.434Z,2.20
2023-05-19T05:04:19.108Z,1.40
2023-05-19T05:07:23.587Z,1.55
2023-05-19T05:10:29.256Z,1.50
2023-05-19T05:13:33.300Z,1.77
2023-05-19T05:16:38.021Z,2.20
2023-05-19T05:19:44.441Z,1.60
2023-05-19T05:22:49.124Z,1.63
2023-05-19T05:25:53.144Z,2.05
2023-05-19T05:28:58.653Z,2.72
2023-05-19T05:32:01.895Z,1.77
2023-05-19T05:35:06.077Z,1.90
2023-05-19T05:38:11.988Z,1.80
2023-05-19T05:41:17.189Z,1.40
2023-05-19T05:44:22.847Z,1.65
2023-05-19T05:47:27.660Z,1.87
2023-05-19T05:50:31.912Z,2.40
2023-05-19T05:53:41.675Z,1.98
2023-05-19T05:56:46.496Z,1.60
2023-05-19T05:59:51.716Z,1.90
2023-05-19T06:02:55.599Z,1.67
2023-05-19T06:05:59.942Z,1.43
2023-05-19T06:09:03.883Z,1.73
2023-05-19T06:12:09.033Z,2.17
2023-05-19T06:15:17.663Z,1.60
2023-05-19T06:18:24.938Z,1.80
2023-05-19T06:21:29.187Z,1.30
2023-05-19T06:24:33.680Z,1.50
2023-05-19T06:27:38.031Z,1.25
2023-05-19T06:30:42.242Z,1.60
2023-05-19T06:34:12.949Z,1.50
2023-05-19T06:37:20.586Z,1.60
2023-05-19T06:40:24.755Z,1.70
2023-05-19T06:43:31.136Z,1.60
2023-05-19T06:46:38.985Z,1.50
2023-05-19T06:49:43.758Z,1.83
2023-05-19T06:52:47.808Z,2.10
2023-05-19T06:55:59.299Z,1.90
2023-05-19T06:59:07.595Z,1.80
2023-05-19T07:02:13.998Z,1.60
2023-05-19T07:05:18.315Z,1.90
2023-05-19T07:08:28.765Z,1.60
2023-05-19T07:11:36.047Z,1.83
2023-05-19T07:14:41.268Z,1.70
2023-05-19T07:17:46.237Z,1.92
2023-05-19T07:20:50.790Z,2.00
2023-05-19T07:23:58.720Z,2.00
2023-05-19T07:27:04.475Z,2.00
2023-05-19T07:30:08.923Z,1.98
2023-05-19T07:33:12.631Z,2.10
2023-05-19T07:36:16.914Z,1.90
2023-05-19T07:39:21.898Z,2.00
2023-05-19T07:42:25.242Z,1.95
2023-05-19T07:45:29.436Z,2.47
2023-05-19T07:48:33.317Z,3.00
2023-05-19T07:51:37.335Z,2.30
2023-05-19T07:54:41.274Z,2.70
2023-05-19T07:57:45.281Z,2.97
2023-05-19T08:00:49.069Z,2.20
2023-05-19T08:03:53.458Z,2.20
2023-05-19T08:06:57.228Z,1.80
2023-05-19T08:10:01.427Z,2.10
2023-05-19T08:13:05.810Z,2.30
2023-05-19T08:16:09.929Z,2.20
2023-05-19T08:19:13.472Z,2.58
2023-05-19T08:22:17.993Z,2.47
2023-05-19T08:25:21.941Z,2.17
2023-05-19T08:28:26.107Z,2.15
2023-05-19T08:31:30.230Z,2.08
2023-05-19T08:34:34.231Z,2.08
2023-05-19T08:37:39.299Z,2.33
2023-05-19T08:40:43.620Z,2.83
2023-05-19T08:43:47.271Z,4.32
2023-05-19T08:46:55.592Z,2.30
2023-05-19T08:50:08.118Z,3.00
2023-05-19T08:53:33.137Z,2.83
2023-05-19T08:56:39.693Z,3.10
2023-05-19T08:59:44.926Z,2.60
2023-05-19T09:02:59.947Z,2.65
2023-05-19T09:06:10.158Z,2.75
2023-05-19T09:09:14.195Z,2.37
2023-05-19T09:12:18.465Z,2.20
2023-05-19T09:15:26.366Z,2.20
2023-05-19T09:18:31.293Z,2.42
2023-05-19T09:21:35.074Z,2.15
2023-05-19T09:24:41.376Z,2.30
2023-05-19T09:27:45.129Z,3.00
2023-05-19T09:30:49.120Z,1.77
2023-05-19T09:33:54.641Z,2.25
2023-05-19T09:37:00.702Z,2.40
2023-05-19T09:40:06.022Z,2.37
2023-05-19T09:43:11.131Z,2.70
2023-05-19T09:46:16.372Z,2.70
2023-05-19T09:49:24.919Z,2.65
2023-05-19T09:52:29.080Z,2.97
2023-05-19T09:55:34.362Z,3.00
2023-05-19T09:58:39.607Z,2.40
2023-05-19T10:01:47.304Z,2.20
2023-05-19T10:04:53.380Z,2.40
2023-05-19T10:07:59.272Z,2.38
2023-05-19T10:11:04.044Z,2.33
2023-05-19T10:14:08.748Z,1.97
2023-05-19T10:17:14.142Z,2.58
2023-05-19T10:20:18.954Z,2.10
2023-05-19T10:23:36.776Z,2.00
2023-05-19T10:26:44.831Z,2.00
2023-05-19T10:29:51.648Z,1.97
2023-05-19T10:32:57.869Z,2.13
2023-05-19T10:36:14.376Z,3.97
2023-05-19T10:39:30.707Z,2.10
2023-05-19T10:43:02.798Z,1.73
2023-05-19T10:46:07.450Z,1.67
2023-05-19T10:49:10.680Z,1.83
2023-05-19T10:52:26.799Z,2.20
2023-05-19T10:56:03.268Z,1.85
2023-05-19T10:59:07.689Z,2.10
2023-05-19T11:02:12.282Z,1.83
2023-05-19T11:05:37.218Z,1.90
2023-05-19T11:08:41.186Z,2.35
2023-05-19T11:11:55.731Z,2.33
2023-05-19T11:15:00.074Z,1.90
2023-05-19T11:18:05.679Z,2.30
2023-05-19T11:21:09.234Z,2.03
2023-05-19T11:24:40.896Z,1.80
2023-05-19T11:27:47.606Z,2.38
2023-05-19T11:30:52.791Z,2.40
2023-05-19T11:33:56.630Z,2.13
2023-05-19T11:37:00.858Z,2.25
2023-05-19T11:40:08.553Z,2.20
2023-05-19T11:43:12.761Z,2.10
2023-05-19T11:46:17.027Z,2.10
2023-05-19T11:49:22.319Z,1.67
2023-05-19T11:52:26.332Z,2.22
2023-05-19T11:55:30.697Z,2.45
2023-05-19T11:58:34.597Z,2.55
2023-05-19T12:01:39.166Z,2.20
2023-05-19T12:04:43.270Z,2.00
2023-05-19T12:07:50.680Z,2.55
2023-05-19T12:10:54.691Z,2.25
2023-05-19T12:14:02.687Z,2.60
2023-05-19T12:17:17.152Z,2.07
2023-05-19T12:20:21.346Z,2.57
2023-05-19T12:23:25.504Z,2.15
2023-05-19T12:26:29.228Z,2.50
2023-05-19T12:29:33.320Z,2.63
2023-05-19T12:32:37.395Z,2.17
2023-05-19T12:35:42.988Z,2.60
2023-05-19T12:38:48.679Z,2.45
2023-05-19T12:41:52.372Z,2.30
2023-05-19T12:44:56.131Z,2.38
2023-05-19T12:48:00.696Z,2.10
2023-05-19T12:51:06.181Z,2.63
2023-05-19T12:54:11.429Z,2.92
2023-05-19T12:57:17.680Z,3.15
2023-05-19T13:00:26.016Z,2.97
2023-05-19T13:03:29.824Z,2.27
2023-05-19T13:06:34.639Z,2.27
2023-05-19T13:09:39.028Z,2.33
2023-05-19T13:19:58.583Z,2.53
2023-05-19T13:23:03.392Z,2.33
2023-05-19T13:26:09.026Z,2.60
2023-05-19T13:29:13.292Z,2.47
2023-05-19T13:32:18.484Z,2.90
2023-05-19T13:35:22.911Z,2.70
2023-05-19T13:38:28.386Z,2.60
2023-05-19T13:41:33.173Z,2.90
2023-05-19T13:44:37.761Z,3.72
2023-05-19T13:47:43.593Z,3.20
2023-05-19T13:50:48.191Z,3.87
2023-05-19T13:53:52.374Z,3.53
2023-05-19T13:56:56.691Z,3.40
2023-05-19T14:00:03.468Z,2.83
2023-05-19T14:03:20.547Z,3.22
2023-05-19T14:06:24.738Z,2.50
2023-05-19T14:09:29.874Z,2.30
2023-05-19T14:12:44.810Z,3.40
2023-05-19T14:15:56.573Z,4.07
2023-05-19T14:19:00.753Z,2.75
2023-05-19T14:22:05.338Z,2.83
2023-05-19T14:25:10.048Z,3.17
2023-05-19T14:28:14.431Z,2.80
2023-05-19T14:31:19.050Z,2.67
2023-05-19T14:34:23.826Z,3.08
2023-05-19T14:37:29.655Z,2.50
2023-05-19T14:40:35.214Z,2.40
2023-05-19T14:43:40.352Z,2.80
2023-05-19T14:46:44.805Z,2.20
2023-05-19T14:49:49.529Z,2.42
2023-05-19T14:52:54.357Z,2.43
2023-05-19T14:55:58.603Z,2.43
2023-05-19T14:59:05.757Z,2.22
2023-05-19T15:02:09.885Z,2.08
2023-05-19T15:05:14.407Z,2.22
2023-05-19T15:08:18.844Z,2.23
2023-05-19T15:11:24.062Z,2.07
2023-05-19T15:14:30.485Z,2.33
2023-05-19T15:17:35.967Z,2.17
2023-05-19T15:20:42.035Z,2.42
2023-05-19T15:23:46.841Z,2.30
2023-05-19T15:26:50.489Z,2.40
2023-05-19T15:29:54.859Z,2.70
2023-05-19T15:32:59.004Z,2.40
2023-05-19T15:36:03.237Z,2.70
2023-05-19T15:39:07.940Z,3.10
2023-05-19T15:42:12.499Z,2.83
2023-05-19T15:45:16.790Z,2.97
2023-05-19T15:48:21.668Z,2.83
2023-05-19T15:51:26.477Z,2.95
2023-05-19T15:54:34.465Z,2.80
2023-05-19T15:57:37.895Z,2.60
2023-05-19T16:00:42.215Z,3.03
2023-05-19T16:03:46.929Z,2.78
2023-05-19T16:06:51.441Z,2.80
2023-05-19T16:09:57.002Z,2.73
2023-05-19T16:13:01.893Z,3.20
2023-05-19T16:16:06.692Z,3.45
2023-05-19T16:19:11.481Z,2.70
2023-05-19T16:22:15.675Z,2.88
2023-05-19T16:25:20.832Z,2.90
2023-05-19T16:28:25.522Z,2.20
2023-05-19T16:31:30.111Z,3.17
2023-05-19T16:34:34.405Z,3.35
2023-05-19T16:37:39.157Z,3.60
2023-05-19T16:40:47.960Z,3.33
2023-05-19T16:43:51.826Z,3.33
2023-05-19T16:46:56.025Z,2.80
2023-05-19T16:50:00.540Z,2.83
2023-05-19T16:53:06.835Z,3.40
2023-05-19T16:56:11.144Z,3.23
2023-05-19T16:59:18.098Z,3.10
2023-05-19T17:02:22.079Z,3.38
2023-05-19T17:05:25.500Z,3.22
2023-05-19T17:08:29.024Z,3.20
2023-05-19T17:11:35.115Z,3.10
2023-05-19T17:14:38.589Z,3.33
2023-05-19T17:17:44.374Z,3.30
2023-05-19T17:20:49.596Z,2.63
2023-05-19T17:23:53.155Z,3.35
2023-05-19T17:26:56.899Z,3.47
2023-05-19T17:30:01.267Z,5.97
2023-05-19T17:33:06.175Z,3.47
2023-05-19T17:36:10.537Z,3.28
2023-05-19T17:39:15.355Z,3.78
2023-05-19T17:42:19.922Z,3.03
2023-05-19T17:45:24.793Z,5.20
2023-05-19T17:48:29.443Z,4.70
2023-05-19T17:51:34.270Z,4.25
2023-05-19T17:54:38.876Z,4.47
2023-05-19T17:57:48.596Z,5.67
2023-05-19T18:00:52.385Z,4.50
2023-05-19T18:04:00.002Z,4.50
2023-05-19T18:07:04.874Z,4.47
2023-05-19T18:10:10.281Z,4.18
2023-05-19T18:13:14.910Z,4.03
2023-05-19T18:16:19.488Z,4.73
2023-05-19T18:19:24.164Z,5.05
2023-05-19T18:22:28.958Z,4.22
2023-05-19T18:25:33.447Z,4.60
2023-05-19T18:28:38.261Z,4.07
2023-05-19T18:31:42.287Z,4.20
2023-05-19T18:34:46.938Z,3.95
2023-05-19T18:37:50.750Z,3.72
2023-05-19T18:40:56.790Z,4.32
2023-05-19T18:44:01.512Z,4.20
2023-05-19T18:47:06.337Z,3.97
2023-05-19T18:50:12.656Z,4.35
2023-05-19T18:53:16.544Z,4.50
2023-05-19T18:56:27.774Z,6.20
2023-05-19T18:59:32.863Z,3.73
2023-05-19T19:02:38.576Z,3.90
2023-05-19T19:05:45.323Z,3.80
2023-05-19T19:08:48.635Z,4.30
2023-05-19T19:11:53.092Z,4.13
2023-05-19T19:14:57.214Z,3.90
2023-05-19T19:18:02.333Z,3.93
2023-05-19T19:21:06.388Z,4.60
2023-05-19T19:24:11.458Z,4.05
2023-05-19T19:27:18.309Z,4.72
2023-05-19T19:30:22.895Z,4.47
2023-05-19T19:33:27.152Z,4.43
2023-05-19T19:36:33.013Z,4.55
2023-05-19T19:39:37.152Z,3.95
2023-05-19T19:42:43.133Z,4.30
2023-05-19T19:45:47.084Z,4.00
2023-05-19T19:48:51.665Z,4.20
2023-05-19T19:51:55.634Z,4.38
2023-05-19T19:54:59.657Z,4.07
2023-05-19T19:58:03.656Z,3.88
2023-05-19T20:01:08.908Z,3.70
2023-05-19T20:04:12.966Z,4.30
2023-05-19T20:07:20.632Z,4.70
2023-05-19T20:10:24.430Z,4.82
2023-05-19T20:13:30.602Z,4.40
2023-05-19T20:16:35.481Z,4.97
2023-05-19T20:19:39.578Z,4.40
2023-05-19T20:22:46.482Z,5.10
2023-05-19T20:26:06.733Z,4.80
2023-05-19T20:29:14.676Z,5.00
2023-05-19T20:32:18.900Z,4.83
2023-05-19T20:35:23.104Z,4.33
2023-05-19T20:38:27.116Z,4.85
2023-05-19T20:41:31.042Z,4.72
2023-05-19T20:44:34.808Z,4.28
2023-05-19T20:47:39.010Z,5.43
2023-05-19T20:50:42.983Z,5.43
2023-05-19T20:53:47.000Z,5.25
2023-05-19T20:56:50.834Z,4.70
2023-05-19T20:59:54.712Z,5.03
2023-05-19T21:02:58.817Z,4.93
2023-05-19T21:06:02.633Z,5.17
2023-05-19T21:09:07.633Z,5.85
2023-05-19T21:12:11.226Z,4.55
2023-05-19T21:15:15.757Z,5.53
2023-05-19T21:18:19.514Z,4.87
2023-05-19T21:21:23.148Z,4.70
2023-05-19T21:24:27.181Z,4.53
2023-05-19T21:27:33.163Z,4.18
2023-05-19T21:30:36.973Z,5.20
2023-05-19T21:33:40.825Z,9.20
2023-05-19T21:36:44.637Z,5.13
2023-05-19T21:39:49.343Z,5.22
2023-05-19T21:42:52.672Z,4.60
2023-05-19T21:45:56.028Z,4.50
2023-05-19T21:48:59.831Z,5.10
2023-05-19T21:52:03.766Z,4.90
2023-05-19T21:55:08.534Z,4.32
2023-05-19T21:58:12.624Z,4.70
2023-05-19T22:01:16.659Z,5.00
2023-05-19T22:04:22.145Z,4.67
2023-05-19T22:07:27.433Z,5.20
2023-05-19T22:10:31.606Z,4.65
2023-05-19T22:13:41.659Z,4.88
2023-05-19T22:16:45.416Z,5.50
2023-05-19T22:19:48.437Z,4.40
2023-05-19T22:22:52.061Z,4.70
2023-05-19T22:25:55.163Z,4.88
2023-05-19T22:28:58.351Z,4.50
2023-05-19T22:32:02.153Z,5.45
2023-05-19T22:35:07.435Z,5.20
2023-05-19T22:38:12.204Z,5.13
2023-05-19T22:41:16.332Z,7.03
2023-05-19T22:44:20.241Z,7.30
2023-05-19T22:47:24.577Z,4.97
2023-05-19T22:50:28.534Z,3.43
2023-05-19T22:53:32.634Z,3.80
2023-05-19T22:56:36.339Z,3.63
2023-05-19T22:59:40.596Z,3.50
2023-05-19T23:02:43.767Z,3.72
2023-05-19T23:05:47.735Z,3.90
2023-05-19T23:09:02.450Z,3.37
2023-05-19T23:12:05.794Z,3.42
2023-05-19T23:15:13.174Z,3.22
2023-05-19T23:18:16.967Z,3.60
2023-05-19T23:21:20.542Z,3.57
2023-05-19T23:24:24.728Z,3.20
2023-05-19T23:27:27.959Z,3.20
2023-05-19T23:30:33.866Z,3.33
2023-05-19T23:33:37.636Z,4.45
2023-05-19T23:36:41.848Z,3.60
2023-05-19T23:39:45.020Z,3.10
2023-05-19T23:42:48.516Z,3.67
2023-05-19T23:45:52.249Z,3.60
2023-05-19T23:48:56.203Z,3.00
2023-05-19T23:52:00.067Z,3.37
2023-05-19T23:55:04.440Z,2.80
2023-05-19T23:58:08.189Z,3.50
